Time;durP1;ratioP1;P1;durP2;ratioP2;P2;SDS_P1;SDS_P2;PMS_P1;PMS_P2;Temp;Humidity;BMP_temperature;BMP_pressure;BME280_temperature;BME280_humidity;BME280_pressure;Samples;Min_cycle;Max_cycle;Signal;HPM_P1;HPM_P2
2020/12/20 00:01:52;;;;;;;6.68;1.58;;;19.10;54.10;;;;;;5083653;28;20086;-52
2020/12/20 00:04:18;;;;;;;1.25;0.40;;;19.10;54.10;;;;;;5074256;28;20975;-48
2020/12/20 00:06:45;;;;;;;4.78;1.05;;;19.10;54.10;;;;;;5070472;28;20055;-48
2020/12/20 00:09:14;;;;;;;3.15;0.70;;;19.10;54.10;;;;;;5083941;28;20131;-49
2020/12/20 00:11:43;;;;;;;3.00;0.65;;;19.10;54.10;;;;;;5082447;28;20048;-54
2020/12/20 00:14:28;;;;;;;4.00;0.68;;;19.10;54.10;;;;;;5080940;28;20155;-48
2020/12/20 00:17:02;;;;;;;4.07;0.63;;;19.10;54.10;;;;;;5077740;28;20071;-51
2020/12/20 00:19:29;;;;;;;1.55;0.90;;;19.10;54.10;;;;;;5083587;28;20074;-50
2020/12/20 00:21:57;;;;;;;1.92;0.63;;;19.10;54.20;;;;;;5070550;28;20048;-53
2020/12/20 00:24:24;;;;;;;5.78;0.40;;;19.10;54.10;;;;;;5084000;28;20427;-54
2020/12/20 00:26:52;;;;;;;2.63;0.60;;;19.10;54.70;;;;;;5075422;28;20105;-54
2020/12/20 00:29:19;;;;;;;2.75;0.40;;;19.10;54.20;;;;;;5075015;28;20044;-49
2020/12/20 00:31:46;;;;;;;2.67;0.75;;;19.10;54.20;;;;;;5075156;28;20040;-51
2020/12/20 00:34:12;;;;;;;2.40;0.40;;;19.10;54.20;;;;;;5071486;28;20047;-48
2020/12/20 00:36:42;;;;;;;6.53;1.70;;;19.10;54.20;;;;;;5070476;28;20140;-50
2020/12/20 00:39:09;;;;;;;3.55;1.08;;;19.10;54.20;;;;;;5072384;28;20076;-52
2020/12/20 00:41:35;;;;;;;1.30;0.60;;;19.10;54.20;;;;;;5071583;28;20427;-52
2020/12/20 00:44:03;;;;;;;5.70;0.30;;;19.10;54.20;;;;;;5073800;28;20052;-50
2020/12/20 00:46:29;;;;;;;4.75;0.63;;;19.10;54.20;;;;;;5079541;28;20113;-52
2020/12/20 00:48:56;;;;;;;4.00;0.20;;;19.10;54.20;;;;;;5083211;28;20048;-50
2020/12/20 00:51:22;;;;;;;2.30;0.38;;;19.10;54.20;;;;;;5081893;28;20504;-50
2020/12/20 00:53:49;;;;;;;2.47;1.02;;;19.10;54.20;;;;;;5075385;28;20040;-48
2020/12/20 00:56:15;;;;;;;5.35;0.90;;;19.10;54.20;;;;;;5073819;28;20645;-50
2020/12/20 00:58:43;;;;;;;2.10;0.60;;;19.10;54.20;;;;;;5074851;28;20414;-49
2020/12/20 01:01:11;;;;;;;3.90;0.93;;;19.10;54.20;;;;;;5054362;28;20052;-49
2020/12/20 01:03:40;;;;;;;3.05;0.40;;;19.10;54.10;;;;;;5069095;28;20048;-49
2020/12/20 01:06:06;;;;;;;1.95;0.30;;;19.10;54.10;;;;;;5072731;28;20048;-52
2020/12/20 01:08:34;;;;;;;2.90;0.68;;;19.10;54.10;;;;;;5074867;28;20140;-48
2020/12/20 01:11:01;;;;;;;1.40;0.30;;;19.10;54.10;;;;;;5073894;28;20048;-51
2020/12/20 01:13:28;;;;;;;6.45;0.65;;;19.10;54.10;;;;;;5076952;28;20082;-48
2020/12/20 01:15:55;;;;;;;3.05;0.90;;;19.10;54.10;;;;;;5088874;28;20054;-48
2020/12/20 01:18:22;;;;;;;3.25;0.65;;;19.10;54.10;;;;;;5074665;28;20057;-48
2020/12/20 01:20:49;;;;;;;4.03;0.30;;;19.10;54.10;;;;;;5076698;28;20056;-49
2020/12/20 01:23:16;;;;;;;2.92;0.50;;;19.10;54.10;;;;;;5077058;28;20041;-49
2020/12/20 01:25:42;;;;;;;3.90;1.33;;;19.10;54.10;;;;;;5076999;28;20051;-48
2020/12/20 01:28:17;;;;;;;2.65;0.50;;;19.10;54.10;;;;;;5074979;28;20063;-50
2020/12/20 01:30:44;;;;;;;3.10;0.30;;;19.10;54.00;;;;;;5071892;28;20532;-50
2020/12/20 01:33:14;;;;;;;4.13;0.57;;;19.10;54.00;;;;;;5076792;28;20075;-51
2020/12/20 01:36:04;;;;;;;2.38;0.40;;;19.10;54.10;;;;;;5075981;28;20550;-49
2020/12/20 01:38:31;;;;;;;5.15;0.60;;;19.10;54.10;;;;;;5076580;28;20071;-53
2020/12/20 01:40:58;;;;;;;9.13;1.27;;;19.10;54.10;;;;;;5076692;28;20047;-48
2020/12/20 01:43:25;;;;;;;4.75;0.40;;;19.10;54.10;;;;;;5077054;28;20075;-49
2020/12/20 01:45:53;;;;;;;4.53;0.35;;;19.10;54.10;;;;;;5088332;28;20412;-49
2020/12/20 01:48:21;;;;;;;1.85;0.20;;;19.10;54.10;;;;;;5084778;28;20054;-48
2020/12/20 01:50:48;;;;;;;3.33;0.40;;;19.00;54.00;;;;;;5096324;28;20040;-48
2020/12/20 01:53:15;;;;;;;3.00;0.40;;;19.10;54.00;;;;;;5081876;28;20556;-47
2020/12/20 01:55:47;;;;;;;6.03;0.98;;;19.10;54.10;;;;;;5076849;28;20036;-48
2020/12/20 01:58:14;;;;;;;6.43;1.13;;;19.10;54.10;;;;;;5073406;28;20044;-48
2020/12/20 02:00:48;;;;;;;6.75;0.80;;;19.10;54.00;;;;;;5086851;28;20053;-49
2020/12/20 02:03:44;;;;;;;7.60;1.13;;;19.10;54.00;;;;;;5085850;28;20044;-48
2020/12/20 02:06:17;;;;;;;3.92;0.52;;;19.10;54.10;;;;;;5084549;28;20052;-49
2020/12/20 02:08:52;;;;;;;8.13;1.27;;;19.10;54.10;;;;;;5095784;28;20044;-48
2020/12/20 02:11:19;;;;;;;4.63;0.20;;;19.10;54.10;;;;;;5095614;28;20051;-49
2020/12/20 02:13:52;;;;;;;5.78;0.40;;;19.10;54.10;;;;;;5093109;28;20139;-49
2020/12/20 02:16:24;;;;;;;2.88;0.85;;;19.10;54.00;;;;;;5086409;28;20040;-54
2020/12/20 02:18:52;;;;;;;1.75;0.40;;;19.10;54.10;;;;;;5070678;28;20052;-52
2020/12/20 02:21:21;;;;;;;4.15;0.40;;;19.10;54.10;;;;;;5073466;28;20409;-52
2020/12/20 02:23:53;;;;;;;4.95;0.68;;;19.10;54.00;;;;;;5075875;28;20580;-51
2020/12/20 02:26:27;;;;;;;2.38;0.47;;;19.10;54.00;;;;;;5067034;28;20059;-52
2020/12/20 02:28:56;;;;;;;1.70;0.30;;;19.10;54.00;;;;;;5083686;28;20473;-51
2020/12/20 02:31:25;;;;;;;3.95;0.60;;;19.10;54.00;;;;;;5087076;28;20044;-51
2020/12/20 02:33:54;;;;;;;4.47;0.30;;;19.10;54.00;;;;;;5072157;28;20612;-51
2020/12/20 02:36:25;;;;;;;2.70;0.45;;;19.10;54.00;;;;;;5084205;28;20504;-51
2020/12/20 02:38:51;;;;;;;4.22;0.20;;;19.10;54.00;;;;;;5084152;28;20047;-49
2020/12/20 02:41:27;;;;;;;2.97;0.43;;;19.10;54.00;;;;;;5092487;28;20078;-48
2020/12/20 02:43:54;;;;;;;5.05;0.73;;;19.10;54.00;;;;;;5078786;28;20052;-52
2020/12/20 02:46:23;;;;;;;4.13;0.52;;;19.10;54.00;;;;;;5083329;28;20479;-48
2020/12/20 02:48:57;;;;;;;2.35;0.50;;;19.10;54.00;;;;;;5071211;28;20052;-48
2020/12/20 02:51:25;;;;;;;7.90;0.55;;;19.10;54.00;;;;;;5084039;28;20075;-49
2020/12/20 02:53:51;;;;;;;5.05;0.50;;;19.10;54.00;;;;;;5080951;28;20093;-54
2020/12/20 02:56:31;;;;;;;10.25;1.88;;;19.10;54.00;;;;;;5077922;28;20139;-50
2020/12/20 02:59:00;;;;;;;2.38;0.43;;;19.10;54.00;;;;;;5076067;28;20047;-50
2020/12/20 03:01:27;;;;;;;4.78;0.43;;;19.10;54.00;;;;;;5098195;28;20048;-51
2020/12/20 03:03:55;;;;;;;5.38;0.45;;;19.10;54.00;;;;;;5070497;28;20508;-49
2020/12/20 03:06:21;;;;;;;6.45;0.30;;;19.10;54.00;;;;;;5073591;28;20087;-50
2020/12/20 03:08:52;;;;;;;3.20;0.30;;;19.10;54.00;;;;;;5099432;28;20052;-51
2020/12/20 03:11:21;;;;;;;6.47;0.90;;;19.10;54.50;;;;;;5094398;28;20052;-47
2020/12/20 03:13:47;;;;;;;5.57;0.60;;;19.10;53.90;;;;;;5082871;28;20044;-48
2020/12/20 03:16:14;;;;;;;5.22;0.30;;;19.10;54.00;;;;;;5087339;28;20431;-48
2020/12/20 03:18:41;;;;;;;4.57;0.63;;;19.10;53.90;;;;;;5070262;28;20055;-50
2020/12/20 03:21:08;;;;;;;3.83;0.57;;;19.10;53.90;;;;;;5099124;28;20508;-48
2020/12/20 03:24:00;;;;;;;7.10;0.50;;;19.10;53.90;;;;;;5083552;28;20440;-49
2020/12/20 03:26:49;;;;;;;6.60;0.63;;;19.00;53.80;;;;;;5015900;28;20092;-48
2020/12/20 03:29:33;;;;;;;3.05;0.40;;;19.00;53.90;;;;;;4998796;28;20044;-50
2020/12/20 03:32:34;;;;;;;6.35;0.45;;;19.00;53.90;;;;;;4999518;28;20088;-48
2020/12/20 03:35:14;;;;;;;3.15;0.40;;;19.00;53.90;;;;;;4998523;28;20053;-48
2020/12/20 03:37:50;;;;;;;2.90;0.30;;;19.10;54.00;;;;;;4999505;28;20136;-48
2020/12/20 03:40:20;;;;;;;3.22;0.55;;;19.00;53.90;;;;;;5000946;28;20070;-48
2020/12/20 03:42:47;;;;;;;3.78;0.20;;;19.00;53.90;;;;;;4988394;28;20105;-51
2020/12/20 03:45:14;;;;;;;3.97;0.68;;;19.00;53.90;;;;;;5012393;28;20053;-52
2020/12/20 03:47:41;;;;;;;8.50;0.60;;;19.00;53.90;;;;;;4978475;28;20478;-50
2020/12/20 03:50:08;;;;;;;5.65;0.63;;;19.00;53.80;;;;;;4993585;28;20044;-49
2020/12/20 03:52:34;;;;;;;6.38;0.50;;;19.00;53.90;;;;;;4978618;28;20041;-50
2020/12/20 03:55:08;;;;;;;3.33;0.28;;;19.10;53.90;;;;;;5002256;28;20049;-49
2020/12/20 03:57:36;;;;;;;4.25;0.40;;;19.10;53.90;;;;;;4988456;28;20069;-51
2020/12/20 04:00:05;;;;;;;2.78;0.35;;;19.10;53.90;;;;;;5001542;28;20565;-52
2020/12/20 04:02:42;;;;;;;6.20;1.10;;;19.10;53.90;;;;;;5016410;28;20057;-51
2020/12/20 04:05:16;;;;;;;11.07;1.05;;;19.00;53.80;;;;;;5094129;28;20135;-49
2020/12/20 04:07:45;;;;;;;4.55;0.47;;;19.00;53.80;;;;;;5098131;28;20044;-48
2020/12/20 04:10:12;;;;;;;7.78;0.88;;;19.00;53.80;;;;;;5085474;28;20068;-48
2020/12/20 04:12:39;;;;;;;4.15;0.85;;;19.10;53.90;;;;;;5069339;28;20094;-52
2020/12/20 04:15:06;;;;;;;2.90;0.22;;;19.10;53.90;;;;;;5076823;28;20052;-51
2020/12/20 04:17:33;;;;;;;4.00;0.95;;;19.10;53.90;;;;;;5082321;28;20650;-49
2020/12/20 04:20:00;;;;;;;7.38;0.30;;;19.10;53.80;;;;;;5081303;28;20040;-49
2020/12/20 04:22:46;;;;;;;;;;;19.00;53.80;;;;;;5075858;28;20051;-54
2020/12/20 04:25:36;;;;;;;8.25;1.08;;;19.00;53.80;;;;;;5067072;28;20072;-52
2020/12/20 04:28:22;;;;;;;4.82;0.38;;;19.00;54.00;;;;;;5072284;28;20044;-49
2020/12/20 04:30:53;;;;;;;4.15;0.55;;;19.00;54.00;;;;;;5069029;28;20055;-51
2020/12/20 04:33:25;;;;;;;4.22;0.40;;;19.00;53.90;;;;;;5082267;28;20154;-48
2020/12/20 04:35:55;;;;;;;7.15;0.55;;;19.00;53.90;;;;;;5073807;28;20476;-54
2020/12/20 04:38:22;;;;;;;5.47;0.30;;;19.00;53.90;;;;;;5073835;28;20048;-52
2020/12/20 04:40:50;;;;;;;6.32;0.55;;;19.00;53.90;;;;;;5073785;28;20795;-54
2020/12/20 04:43:21;;;;;;;4.88;0.47;;;19.00;54.00;;;;;;5071571;28;20583;-55
2020/12/20 04:45:53;;;;;;;4.97;0.40;;;19.00;53.90;;;;;;5079508;28;20048;-49
2020/12/20 04:48:36;;;;;;;5.25;0.60;;;19.00;53.90;;;;;;5089545;28;20048;-54
2020/12/20 04:51:06;;;;;;;6.55;0.45;;;19.00;53.90;;;;;;5076956;28;20076;-52
2020/12/20 04:53:32;;;;;;;3.05;0.95;;;19.00;53.90;;;;;;5077607;28;20044;-50
2020/12/20 04:56:05;;;;;;;4.10;0.50;;;19.10;53.90;;;;;;5081824;28;20519;-48
2020/12/20 04:58:52;;;;;;;4.07;0.50;;;19.00;53.90;;;;;;5086079;28;20407;-51
2020/12/20 05:01:23;;;;;;;2.35;0.28;;;19.00;53.80;;;;;;5076418;28;20055;-51
2020/12/20 05:03:51;;;;;;;3.13;0.55;;;19.00;53.80;;;;;;5072398;28;20145;-48
2020/12/20 05:06:18;;;;;;;6.05;0.88;;;19.00;53.80;;;;;;5085579;28;20056;-52
2020/12/20 05:08:49;;;;;;;4.07;0.50;;;19.00;53.80;;;;;;5096698;28;20052;-50
2020/12/20 05:11:32;;;;;;;5.97;0.50;;;19.00;53.70;;;;;;5096463;28;20131;-51
2020/12/20 05:14:01;;;;;;;4.03;0.43;;;19.00;53.70;;;;;;5096120;28;20036;-52
2020/12/20 05:16:34;;;;;;;4.05;0.50;;;19.00;53.70;;;;;;5091009;28;20711;-51
2020/12/20 05:19:09;;;;;;;7.70;0.60;;;19.00;53.60;;;;;;5090863;28;20036;-51
2020/12/20 05:21:37;;;;;;;2.53;0.30;;;19.00;53.60;;;;;;5072289;28;20052;-52
2020/12/20 05:24:24;;;;;;;4.53;1.40;;;19.00;53.50;;;;;;5076299;28;20493;-52
2020/12/20 05:26:51;;;;;;;;;;;19.00;53.50;;;;;;5076860;28;20127;-49
2020/12/20 05:29:25;;;;;;;6.63;0.45;;;19.00;53.50;;;;;;5083058;28;19927;-49
2020/12/20 05:31:52;;;;;;;4.78;0.30;;;18.90;53.60;;;;;;5076783;28;20047;-51
2020/12/20 05:34:57;;;;;;;5.75;0.30;;;19.00;53.60;;;;;;5075601;28;20090;-48
2020/12/20 05:37:28;;;;;;;4.03;0.40;;;19.00;53.60;;;;;;5075920;28;20054;-52
2020/12/20 05:40:01;;;;;;;11.02;0.88;;;19.00;53.50;;;;;;5072057;28;20048;-52
2020/12/20 05:42:57;;;;;;;1.88;0.45;;;19.00;53.50;;;;;;5071992;28;20048;-51
2020/12/20 05:45:28;;;;;;;4.32;0.57;;;19.00;53.50;;;;;;5086428;28;20052;-50
2020/12/20 05:48:14;;;;;;;4.85;0.40;;;19.00;53.50;;;;;;5085134;28;20419;-49
2020/12/20 05:50:50;;;;;;;8.05;0.40;;;19.00;53.40;;;;;;5098970;28;20081;-51
2020/12/20 05:53:22;;;;;;;1.20;0.30;;;19.00;53.40;;;;;;5095805;28;20127;-50
2020/12/20 05:55:49;;;;;;;4.80;0.40;;;19.00;53.40;;;;;;5093579;28;20043;-51
2020/12/20 05:58:16;;;;;;;3.25;0.20;;;19.00;53.40;;;;;;5072477;28;20078;-49
2020/12/20 06:00:44;;;;;;;5.22;0.50;;;19.00;53.30;;;;;;5086801;28;20448;-51
2020/12/20 06:03:11;;;;;;;5.75;0.80;;;19.00;53.30;;;;;;5085837;28;20050;-48
2020/12/20 06:05:40;;;;;;;2.97;0.43;;;19.00;53.30;;;;;;5079079;28;20052;-48
2020/12/20 06:08:09;;;;;;;6.40;0.52;;;19.00;53.30;;;;;;5078145;28;20111;-49
2020/12/20 06:10:43;;;;;;;2.65;0.35;;;19.00;53.30;;;;;;5087458;28;20496;-49
2020/12/20 06:13:12;;;;;;;5.53;0.88;;;19.00;53.30;;;;;;5073181;28;20518;-49
2020/12/20 06:15:41;;;;;;;2.63;0.25;;;19.00;53.20;;;;;;5081218;28;20131;-49
2020/12/20 06:18:14;;;;;;;4.68;0.43;;;19.00;53.20;;;;;;5074308;28;20055;-48
2020/12/20 06:20:52;;;;;;;7.90;0.50;;;19.00;53.20;;;;;;5082592;28;20052;-48
2020/12/20 06:23:20;;;;;;;2.20;0.43;;;19.00;53.10;;;;;;5081573;28;20041;-49
2020/12/20 06:25:48;;;;;;;4.13;0.45;;;19.00;53.20;;;;;;5077644;28;20086;-50
2020/12/20 06:28:17;;;;;;;6.55;0.43;;;19.00;53.10;;;;;;5086131;28;20534;-49
2020/12/20 06:30:45;;;;;;;6.95;0.68;;;19.00;53.10;;;;;;5086332;28;20516;-48
2020/12/20 06:33:20;;;;;;;3.80;0.75;;;19.00;53.10;;;;;;5075556;28;20528;-48
2020/12/20 06:35:51;;;;;;;5.80;0.82;;;19.00;53.00;;;;;;5076737;28;20540;-51
2020/12/20 06:38:22;;;;;;;5.20;0.45;;;19.00;53.00;;;;;;5078648;28;20527;-53
2020/12/20 06:40:50;;;;;;;3.60;0.45;;;19.00;53.00;;;;;;5084249;28;20135;-50
2020/12/20 06:43:28;;;;;;;6.82;0.32;;;19.00;53.10;;;;;;5088376;28;20512;-56
2020/12/20 06:45:55;;;;;;;6.10;0.50;;;19.00;53.00;;;;;;5080832;28;20058;-52
2020/12/20 06:48:31;;;;;;;7.53;0.73;;;19.00;53.00;;;;;;5085163;28;20054;-49
2020/12/20 06:51:00;;;;;;;2.47;0.30;;;19.00;53.00;;;;;;5087195;28;20435;-54
2020/12/20 06:53:49;;;;;;;2.55;0.20;;;19.00;53.00;;;;;;5082776;28;20074;-50
2020/12/20 06:56:16;;;;;;;4.82;0.63;;;19.00;53.00;;;;;;5070465;28;20051;-54
2020/12/20 06:58:43;;;;;;;4.10;0.30;;;19.00;53.00;;;;;;5076979;28;20044;-49
2020/12/20 07:01:09;;;;;;;4.05;0.60;;;19.00;53.00;;;;;;5087782;28;20083;-47
2020/12/20 07:03:38;;;;;;;5.28;0.45;;;19.00;53.00;;;;;;5071771;28;20040;-51
2020/12/20 07:06:26;;;;;;;3.20;0.65;;;19.00;53.00;;;;;;5084504;28;20041;-48
2020/12/20 07:08:55;;;;;;;4.03;0.38;;;19.00;53.00;;;;;;5077120;28;20090;-49
2020/12/20 07:11:24;;;;;;;3.25;0.25;;;19.00;53.00;;;;;;5080119;28;20056;-48
2020/12/20 07:13:54;;;;;;;3.75;0.50;;;19.00;53.00;;;;;;5081978;28;20454;-49
2020/12/20 07:16:22;;;;;;;2.90;0.28;;;19.00;53.00;;;;;;5081081;28;20059;-50
2020/12/20 07:18:56;;;;;;;5.85;0.77;;;18.90;53.00;;;;;;5086646;28;20052;-48
2020/12/20 07:21:49;;;;;;;4.90;0.73;;;19.00;53.00;;;;;;5084322;28;20090;-49
2020/12/20 07:24:17;;;;;;;4.72;0.20;;;19.00;53.00;;;;;;5070935;28;20072;-48
2020/12/20 07:26:45;;;;;;;6.90;0.68;;;18.90;53.00;;;;;;5082138;28;20040;-49
2020/12/20 07:29:11;;;;;;;5.57;0.20;;;18.90;52.90;;;;;;5081167;28;20043;-49
2020/12/20 07:31:38;;;;;;;3.95;0.30;;;18.90;52.90;;;;;;5075642;28;20064;-49
2020/12/20 07:34:07;;;;;;;4.00;0.47;;;18.90;52.90;;;;;;5071499;28;20055;-50
2020/12/20 07:36:35;;;;;;;5.75;0.45;;;18.90;52.90;;;;;;5084355;28;20040;-49
2020/12/20 07:39:03;;;;;;;6.57;0.50;;;18.90;52.90;;;;;;5082761;28;20059;-48
2020/12/20 07:41:30;;;;;;;1.70;0.30;;;18.90;52.80;;;;;;5078763;28;20194;-49
2020/12/20 07:43:59;;;;;;;3.58;0.43;;;18.90;52.80;;;;;;5075421;28;20052;-50
2020/12/20 07:46:25;;;;;;;5.78;0.20;;;18.90;52.80;;;;;;5083334;28;20103;-48
2020/12/20 07:48:52;;;;;;;3.22;0.73;;;18.90;53.40;;;;;;5069864;28;20043;-49
2020/12/20 07:51:20;;;;;;;2.88;0.38;;;18.90;52.80;;;;;;5083768;28;20048;-50
2020/12/20 07:53:49;;;;;;;3.10;0.30;;;18.90;52.80;;;;;;5076211;28;20516;-48
2020/12/20 07:56:20;;;;;;;4.25;0.40;;;18.90;52.80;;;;;;5077585;28;20078;-51
2020/12/20 07:58:48;;;;;;;5.25;0.77;;;18.90;52.80;;;;;;5082511;28;20128;-52
2020/12/20 08:01:14;;;;;;;3.92;0.68;;;18.90;52.80;;;;;;5081189;28;20068;-50
2020/12/20 08:03:41;;;;;;;3.75;0.30;;;18.90;52.80;;;;;;5071021;28;20075;-49
2020/12/20 08:06:09;;;;;;;2.53;0.80;;;18.90;52.80;;;;;;5072481;28;20047;-53
2020/12/20 08:09:07;;;;;;;5.95;0.30;;;18.90;52.80;;;;;;5083038;28;20048;-51
2020/12/20 08:11:34;;;;;;;3.25;0.32;;;18.90;52.80;;;;;;5077866;28;20059;-49
2020/12/20 08:14:02;;;;;;;3.00;0.30;;;18.90;52.80;;;;;;5074964;28;20040;-49
2020/12/20 08:16:31;;;;;;;2.58;0.28;;;18.90;52.80;;;;;;5088243;28;20120;-52
2020/12/20 08:18:59;;;;;;;5.30;0.65;;;18.90;52.70;;;;;;5070951;28;20051;-51
2020/12/20 08:21:36;;;;;;;2.85;0.45;;;18.90;52.70;;;;;;5086703;28;20131;-51
2020/12/20 08:24:05;;;;;;;8.15;0.40;;;18.90;52.60;;;;;;5086938;28;20070;-48
2020/12/20 08:26:32;;;;;;;4.22;0.20;;;18.90;52.60;;;;;;5086335;28;20534;-48
2020/12/20 08:29:00;;;;;;;4.10;0.40;;;18.90;52.60;;;;;;5086675;28;20067;-49
2020/12/20 08:31:29;;;;;;;4.28;0.32;;;18.90;52.60;;;;;;5090584;28;20119;-47
2020/12/20 08:33:56;;;;;;;2.90;0.30;;;18.90;52.60;;;;;;5074554;28;20056;-50
2020/12/20 08:36:22;;;;;;;2.05;0.73;;;18.90;52.60;;;;;;5087479;28;20044;-49
2020/12/20 08:38:49;;;;;;;3.30;0.30;;;18.90;52.60;;;;;;5086723;28;20058;-51
2020/12/20 08:41:21;;;;;;;2.17;0.30;;;18.90;52.60;;;;;;5084233;28;20059;-50
2020/12/20 08:43:48;;;;;;;2.00;0.35;;;18.90;52.60;;;;;;5077157;28;20087;-54
2020/12/20 08:46:31;;;;;;;6.13;0.93;;;18.90;52.60;;;;;;5088316;28;20048;-49
2020/12/20 08:49:17;;;;;;;7.88;0.40;;;18.90;52.60;;;;;;5073314;28;20519;-49
2020/12/20 08:51:44;;;;;;;3.33;0.30;;;18.90;52.60;;;;;;5088772;28;20075;-51
2020/12/20 08:54:11;;;;;;;4.65;0.45;;;18.90;53.20;;;;;;5077854;28;20456;-52
2020/12/20 08:56:58;;;;;;;6.10;1.73;;;18.90;52.60;;;;;;5083923;28;20361;-50
2020/12/20 08:59:27;;;;;;;10.50;0.80;;;18.90;52.60;;;;;;5082553;28;20061;-55
2020/12/20 09:01:53;;;;;;;1.58;0.50;;;18.90;52.70;;;;;;5085684;28;20055;-53
2020/12/20 09:04:20;;;;;;;1.58;0.85;;;18.90;52.70;;;;;;5086916;28;20400;-50
2020/12/20 09:07:01;;;;;;;3.10;0.50;;;18.90;52.60;;;;;;5088836;28;20044;-52
2020/12/20 09:09:28;;;;;;;5.30;1.55;;;18.90;52.60;;;;;;5087312;28;20052;-49
2020/12/20 09:11:54;;;;;;;2.00;0.30;;;18.90;52.60;;;;;;5079020;28;20040;-51
2020/12/20 09:14:22;;;;;;;4.55;0.47;;;18.90;52.60;;;;;;5078415;28;20512;-54
2020/12/20 09:16:48;;;;;;;4.07;1.33;;;18.90;52.70;;;;;;5076469;28;20040;-54
2020/12/20 09:19:15;;;;;;;8.63;0.68;;;19.00;52.80;;;;;;5089178;28;20516;-48
2020/12/20 09:21:48;;;;;;;9.20;1.05;;;18.90;52.70;;;;;;5073708;28;20053;-51
2020/12/20 09:24:14;;;;;;;5.80;0.98;;;19.00;52.70;;;;;;5086511;28;20044;-54
2020/12/20 09:26:41;;;;;;;3.25;0.45;;;19.00;52.70;;;;;;5079865;28;20056;-56
2020/12/20 09:29:08;;;;;;;5.05;0.20;;;19.00;52.70;;;;;;5078786;28;20048;-51
2020/12/20 09:31:35;;;;;;;5.40;0.50;;;19.00;52.70;;;;;;5084778;28;20041;-51
2020/12/20 09:34:03;;;;;;;4.40;0.60;;;19.00;52.70;;;;;;5088679;28;20048;-49
2020/12/20 09:36:31;;;;;;;3.17;0.40;;;19.00;52.70;;;;;;5086665;28;20508;-52
2020/12/20 09:39:01;;;;;;;9.50;0.52;;;19.10;52.70;;;;;;5076174;28;20052;-50
2020/12/20 09:41:29;;;;;;;3.17;0.50;;;19.10;52.60;;;;;;5077920;28;20059;-48
2020/12/20 09:43:57;;;;;;;4.05;0.28;;;19.10;52.60;;;;;;5076337;28;20091;-48
2020/12/20 09:46:26;;;;;;;4.75;0.40;;;19.10;52.60;;;;;;5085650;28;20105;-49
2020/12/20 09:48:55;;;;;;;5.93;0.45;;;19.10;52.50;;;;;;5088833;28;20042;-49
2020/12/20 09:51:23;;;;;;;4.57;0.75;;;19.10;52.50;;;;;;5075317;28;20079;-50
2020/12/20 09:53:50;;;;;;;1.00;0.20;;;19.10;52.50;;;;;;5084552;28;20047;-51
2020/12/20 09:56:17;;;;;;;6.47;0.60;;;19.10;52.40;;;;;;5084769;28;20055;-48
2020/12/20 09:58:44;;;;;;;3.55;0.30;;;19.10;52.90;;;;;;5085467;28;20127;-49
2020/12/20 10:01:16;;;;;;;4.35;0.20;;;19.20;52.20;;;;;;5074403;28;20105;-50
2020/12/20 10:03:42;;;;;;;3.65;0.20;;;19.20;52.10;;;;;;5072895;28;20063;-53
2020/12/20 10:06:10;;;;;;;6.82;0.55;;;19.20;52.10;;;;;;5074890;28;20445;-54
2020/12/20 10:08:37;;;;;;;4.75;0.20;;;19.20;52.10;;;;;;5087085;28;20458;-48
2020/12/20 10:11:04;;;;;;;5.40;0.20;;;19.20;51.90;;;;;;5083870;28;20040;-49
2020/12/20 10:13:30;;;;;;;3.25;0.40;;;19.20;51.80;;;;;;5084917;28;20052;-49
2020/12/20 10:15:57;;;;;;;4.20;0.45;;;19.30;51.80;;;;;;5080404;28;20075;-49
2020/12/20 10:18:23;;;;;;;3.25;0.93;;;19.30;51.70;;;;;;5085733;28;20071;-51
2020/12/20 10:20:50;;;;;;;7.00;0.85;;;19.30;51.60;;;;;;5077437;28;20060;-51
2020/12/20 10:23:17;;;;;;;1.60;0.95;;;19.30;51.50;;;;;;5077357;28;20488;-51
2020/12/20 10:25:44;;;;;;;10.55;0.60;;;19.30;51.40;;;;;;5074577;28;20484;-56
2020/12/20 10:28:10;;;;;;;2.08;0.30;;;19.30;51.40;;;;;;5087106;28;20157;-51
2020/12/20 10:30:37;;;;;;;3.53;0.40;;;19.30;51.30;;;;;;5085377;28;20100;-52
2020/12/20 10:33:04;;;;;;;7.30;0.40;;;19.40;51.30;;;;;;5084704;28;20344;-50
2020/12/20 10:35:30;;;;;;;4.63;0.57;;;19.40;51.20;;;;;;5084100;28;20163;-48
2020/12/20 10:37:58;;;;;;;1.83;0.20;;;19.40;51.20;;;;;;5088296;28;20036;-49
2020/12/20 10:40:26;;;;;;;2.30;0.25;;;19.40;51.30;;;;;;5084955;28;20072;-50
2020/12/20 10:42:53;;;;;;;2.22;0.20;;;19.40;51.30;;;;;;5087681;28;20044;-52
2020/12/20 10:45:20;;;;;;;3.05;0.70;;;19.40;51.30;;;;;;5081933;28;20075;-51
2020/12/20 10:47:47;;;;;;;2.10;0.22;;;19.40;51.20;;;;;;5084044;28;20108;-52
2020/12/20 10:50:14;;;;;;;2.47;0.43;;;19.40;51.10;;;;;;5082411;28;20476;-53
2020/12/20 10:52:40;;;;;;;3.67;0.30;;;19.40;51.10;;;;;;5073561;28;20048;-51
2020/12/20 10:55:08;;;;;;;2.25;0.30;;;19.40;51.10;;;;;;5087263;28;20073;-48
2020/12/20 10:57:35;;;;;;;2.97;0.30;;;19.50;51.10;;;;;;5085520;28;20075;-56
2020/12/20 11:00:03;;;;;;;1.77;0.47;;;19.50;51.00;;;;;;5083936;28;20044;-49
2020/12/20 11:02:30;;;;;;;2.67;0.30;;;19.40;50.90;;;;;;5079881;28;20416;-49
2020/12/20 11:04:56;;;;;;;7.03;0.65;;;19.50;50.90;;;;;;5075603;28;20512;-51
2020/12/20 11:07:23;;;;;;;1.83;0.35;;;19.50;50.80;;;;;;5088243;28;20123;-52
2020/12/20 11:09:49;;;;;;;5.65;0.30;;;19.50;50.80;;;;;;5071777;28;20097;-52
2020/12/20 11:12:16;;;;;;;2.45;0.10;;;19.50;50.70;;;;;;5084591;28;20048;-52
2020/12/20 11:14:43;;;;;;;6.38;0.82;;;19.50;50.70;;;;;;5082636;28;20050;-56
2020/12/20 11:17:10;;;;;;;2.67;0.50;;;19.50;50.80;;;;;;5082088;28;20075;-55
2020/12/20 11:19:36;;;;;;;5.38;0.35;;;19.50;51.00;;;;;;5072570;28;20571;-50
2020/12/20 11:22:05;;;;;;;1.88;0.20;;;19.50;51.00;;;;;;5083976;28;20087;-51
2020/12/20 11:24:32;;;;;;;2.22;0.13;;;19.50;51.10;;;;;;5070398;28;20127;-52
2020/12/20 11:26:58;;;;;;;2.50;0.25;;;19.50;51.40;;;;;;5086688;28;20052;-51
2020/12/20 11:29:25;;;;;;;2.22;0.10;;;19.50;51.70;;;;;;5081608;28;20040;-52
2020/12/20 11:31:52;;;;;;;1.40;0.28;;;19.60;51.80;;;;;;5084411;28;20059;-49
2020/12/20 11:34:22;;;;;;;1.33;0.10;;;19.50;51.90;;;;;;5071653;28;20075;-49
2020/12/20 11:36:49;;;;;;;0.52;0.28;;;19.60;52.00;;;;;;5086303;28;20060;-50
2020/12/20 11:39:16;;;;;;;0.85;0.20;;;19.50;52.00;;;;;;5084463;28;20789;-53
2020/12/20 11:41:43;;;;;;;1.90;0.20;;;19.60;52.10;;;;;;5077242;28;20056;-49
2020/12/20 11:44:10;;;;;;;2.30;0.40;;;19.50;52.10;;;;;;5074200;28;20041;-52
2020/12/20 11:46:37;;;;;;;2.55;0.20;;;19.60;52.10;;;;;;5084935;28;20075;-49
2020/12/20 11:49:05;;;;;;;1.98;0.10;;;19.60;52.20;;;;;;5071593;28;20135;-49
2020/12/20 11:51:31;;;;;;;1.15;0.20;;;19.60;52.20;;;;;;5084512;28;20134;-55
2020/12/20 11:53:59;;;;;;;1.88;0.17;;;19.60;52.30;;;;;;5083739;28;20055;-52
2020/12/20 11:56:31;;;;;;;2.80;0.60;;;19.60;52.30;;;;;;5082213;28;20044;-50
2020/12/20 11:58:58;;;;;;;0.57;0.10;;;19.60;52.30;;;;;;5082906;28;20060;-51
2020/12/20 12:01:27;;;;;;;1.17;0.10;;;19.60;52.30;;;;;;5074659;28;20787;-54
2020/12/20 12:03:54;;;;;;;0.70;0.10;;;19.60;52.30;;;;;;5070698;28;20500;-50
2020/12/20 12:06:21;;;;;;;2.28;0.10;;;19.60;52.30;;;;;;5073314;28;20056;-52
2020/12/20 12:08:48;;;;;;;1.27;0.57;;;19.60;52.30;;;;;;5075648;28;20049;-52
2020/12/20 12:11:18;;;;;;;1.38;0.20;;;19.60;52.40;;;;;;5075285;28;20040;-49
2020/12/20 12:13:45;;;;;;;0.63;0.47;;;19.60;52.40;;;;;;5075131;28;20044;-50
2020/12/20 12:16:13;;;;;;;0.88;0.10;;;19.60;52.40;;;;;;5080161;28;20123;-50
2020/12/20 12:18:40;;;;;;;1.88;0.13;;;19.60;53.00;;;;;;5085171;28;20044;-50
2020/12/20 12:21:11;;;;;;;1.05;0.10;;;19.60;52.40;;;;;;5083702;28;20083;-53
2020/12/20 12:23:38;;;;;;;3.80;0.35;;;19.60;52.40;;;;;;5082499;28;20541;-48
2020/12/20 12:26:04;;;;;;;6.43;0.10;;;19.60;52.40;;;;;;5081829;28;20127;-52
2020/12/20 12:28:31;;;;;;;0.68;0.60;;;19.60;52.40;;;;;;5074382;28;20526;-54
2020/12/20 12:30:57;;;;;;;1.08;0.20;;;19.60;52.40;;;;;;5070827;28;20468;-48
2020/12/20 12:33:24;;;;;;;3.58;0.47;;;19.60;52.40;;;;;;5083668;28;20032;-48
2020/12/20 12:35:50;;;;;;;1.50;0.10;;;19.60;52.40;;;;;;5075653;28;20906;-49
2020/12/20 12:38:17;;;;;;;2.65;0.20;;;19.60;52.30;;;;;;5075352;28;20045;-49
2020/12/20 12:40:44;;;;;;;1.33;0.40;;;19.70;52.40;;;;;;5075306;28;20040;-50
2020/12/20 12:43:11;;;;;;;1.95;0.10;;;19.60;52.30;;;;;;5085574;28;20059;-55
2020/12/20 12:45:37;;;;;;;2.05;0.20;;;19.70;52.30;;;;;;5079837;28;20547;-53
2020/12/20 12:48:07;;;;;;;1.70;0.13;;;19.70;52.30;;;;;;5075194;28;20076;-51
2020/12/20 12:50:34;;;;;;;0.82;0.10;;;19.70;52.30;;;;;;5073454;28;20043;-50
2020/12/20 12:53:00;;;;;;;2.53;0.25;;;19.60;52.30;;;;;;5075280;28;20904;-53
2020/12/20 12:55:28;;;;;;;3.30;0.10;;;19.70;52.30;;;;;;5071810;28;20090;-49
2020/12/20 12:57:56;;;;;;;1.13;0.10;;;19.70;52.30;;;;;;5086778;28;20538;-52
2020/12/20 13:00:23;;;;;;;1.35;0.10;;;19.70;52.30;;;;;;5071274;28;20051;-51
2020/12/20 13:02:49;;;;;;;1.02;0.10;;;19.70;52.30;;;;;;5081812;28;20059;-55